Time;durP1;ratioP1;P1;durP2;ratioP2;P2;SDS_P1;SDS_P2;PMS_P1;PMS_P2;Temp;Humidity;BMP_temperature;BMP_pressure;BME280_temperature;BME280_humidity;BME280_pressure;Samples;Min_cycle;Max_cycle;Signal;HPM_P1;HPM_P2
2021/12/06 05:32:34;;;;;;;40.93;22.70;;;1.60;99.90;;;;;;5083040;27;20351;-63
2021/12/06 05:35:06;;;;;;;39.85;21.67;;;1.50;99.90;;;;;;5070431;28;20024;-63
2021/12/06 05:37:38;;;;;;;34.15;18.88;;;1.60;99.90;;;;;;5064526;28;20048;-64
2021/12/06 05:40:09;;;;;;;43.28;21.80;;;1.60;99.90;;;;;;5067096;28;20032;-62
2021/12/06 05:42:35;;;;;;;39.75;20.42;;;1.60;99.90;;;;;;5062383;28;20116;-65
2021/12/06 05:45:02;;;;;;;42.45;21.83;;;1.60;99.90;;;;;;5062893;28;20674;-64
2021/12/06 05:47:28;;;;;;;39.80;21.75;;;1.60;99.90;;;;;;5062484;28;20039;-63
2021/12/06 05:49:53;;;;;;;46.47;23.30;;;1.50;99.90;;;;;;5065139;28;20028;-64
2021/12/06 05:52:19;;;;;;;38.45;18.83;;;1.50;99.90;;;;;;5065666;28;20142;-64
2021/12/06 05:54:45;;;;;;;39.95;21.65;;;1.60;99.90;;;;;;5074647;28;20028;-64
2021/12/06 05:57:11;;;;;;;40.55;21.42;;;1.60;99.90;;;;;;5071104;28;20029;-64
2021/12/06 05:59:39;;;;;;;41.47;21.70;;;1.60;99.90;;;;;;5062555;28;20100;-64
2021/12/06 13:02:34;;;;;;;31.33;13.48;;;2.10;99.90;;;;;;5078059;28;20176;-63
2021/12/06 13:05:00;;;;;;;46.97;17.33;;;2.10;99.90;;;;;;5064637;28;20021;-63
2021/12/06 13:07:30;;;;;;;42.50;17.27;;;2.10;99.90;;;;;;5073431;28;20090;-64
2021/12/06 13:09:58;;;;;;;38.72;17.45;;;2.10;99.90;;;;;;5069279;28;20075;-63
2021/12/06 13:12:28;;;;;;;39.22;20.00;;;2.10;99.90;;;;;;5060856;28;20035;-65
2021/12/06 13:15:08;;;;;;;29.63;15.10;;;2.10;99.90;;;;;;5072432;28;20035;-63
2021/12/06 13:17:48;;;;;;;27.77;15.07;;;2.10;99.90;;;;;;5067047;28;20142;-63
2021/12/06 13:20:20;;;;;;;21.05;11.95;;;2.00;99.90;;;;;;5067887;28;20039;-65
2021/12/06 13:22:48;;;;;;;32.65;14.35;;;2.10;99.90;;;;;;5067823;28;20466;-64
2021/12/06 13:25:23;;;;;;;30.83;16.15;;;2.10;99.90;;;;;;5065414;28;20107;-64
2021/12/06 13:28:05;;;;;;;39.05;17.88;;;2.10;99.90;;;;;;5071741;28;20052;-63
2021/12/06 13:30:44;;;;;;;30.67;13.65;;;2.10;99.90;;;;;;5073635;28;20413;-63
2021/12/06 13:33:12;;;;;;;36.45;19.02;;;2.20;99.90;;;;;;5076145;28;20028;-64
2021/12/06 13:35:45;;;;;;;28.90;15.38;;;2.10;99.90;;;;;;5075469;28;20033;-65
2021/12/06 13:38:22;;;;;;;36.58;18.40;;;2.10;99.90;;;;;;5073872;28;20063;-64
2021/12/06 13:40:50;;;;;;;29.08;18.08;;;2.10;99.90;;;;;;5069372;28;20025;-65
2021/12/06 13:43:34;;;;;;;27.33;15.48;;;2.10;99.90;;;;;;5071773;28;20029;-63
2021/12/06 13:46:07;;;;;;;28.88;15.07;;;2.10;99.90;;;;;;5067283;28;20553;-63
2021/12/06 13:48:40;;;;;;;28.80;14.75;;;2.10;99.90;;;;;;5072162;28;20135;-62
2021/12/06 13:51:31;;;;;;;25.80;15.70;;;2.10;99.90;;;;;;5071115;28;20028;-63
2021/12/06 13:54:00;;;;;;;31.15;16.20;;;2.00;99.90;;;;;;5076201;28;20121;-63
2021/12/06 13:56:38;;;;;;;30.88;16.50;;;2.00;99.90;;;;;;5075570;28;20028;-63
2021/12/06 13:59:04;;;;;;;35.50;17.90;;;2.00;99.90;;;;;;5068297;28;20102;-63
2021/12/06 20:32:33;;;;;;;44.95;21.90;;;1.60;99.90;;;;;;5077415;27;20346;-62
2021/12/06 20:34:59;;;;;;;45.67;21.20;;;1.60;99.90;;;;;;5045074;28;20032;-62
2021/12/06 20:37:25;;;;;;;49.85;22.77;;;1.60;99.90;;;;;;5045944;28;20036;-62
2021/12/06 20:39:51;;;;;;;45.80;22.92;;;1.60;99.90;;;;;;5046251;28;20841;-62
2021/12/06 20:42:16;;;;;;;37.00;20.27;;;1.60;99.90;;;;;;5048472;28;20390;-62
2021/12/06 20:44:42;;;;;;;44.97;22.33;;;1.60;99.90;;;;;;5041063;28;20037;-62
2021/12/06 20:47:08;;;;;;;43.50;20.08;;;1.60;99.90;;;;;;5046840;28;20102;-62
2021/12/06 20:49:33;;;;;;;45.70;24.98;;;1.60;99.90;;;;;;5044824;28;20067;-63
2021/12/06 20:51:59;;;;;;;39.58;19.15;;;1.60;99.90;;;;;;5043957;28;20033;-61
2021/12/06 20:54:24;;;;;;;35.50;20.85;;;1.60;99.90;;;;;;5048153;28;20021;-62
2021/12/06 20:56:50;;;;;;;40.90;20.92;;;1.60;99.90;;;;;;5050759;28;20458;-61
2021/12/06 20:59:22;;;;;;;39.92;19.98;;;1.60;99.90;;;;;;5043889;28;20033;-62
